Suffolk, Texas
Current Conditions -  °F | °C
As of 9:35 PM on Friday 19 Dec 2014 (Local Time) from KOSA Reporting Station
Overcast Overcast  
Wind Chill:   Ceiling: 700
Heat Index:   Visibility: 5mi
Dew Point:   Wind: 6mph
Humidity: 95%   Direction: 70°ENE
Pressure: 30.22"   Gusts: NA
Location:  32.7353°N, 94.9492°W
Report Text: KOSA 200335Z AUTO 07005KT 5SM OVC007 08/07 A3022 RMK AO1 T00770070
Loading
Personal Weather Stations






























Interactive Weather Map New forecast layout! Learn more

10-Day Weather Forecast

Advertisements
Track Severe Weather on mobile